Campanya meteocatpedra

Dades EMA Golmés

?
?
Resum diari 21:00 TU
Dades diàries de l'estació meteorològica
Temperatura mitjana 25.2 °C
Temperatura màxima 32.1 °C 16:04 TU
Temperatura mínima 18.7 °C 3:22 TU
Humitat relativa mitjana 66%
Precipitació acumulada 0.0 mm
Ratxa màxima del vent (2 m) 14.4 km/h - 284º 13:33 TU
Irradiació solar global 22.7 MJ/m2

El tram horari està expressat en Temps Universal (TU). Cal sumar una hora en horari d'hivern i dues en horari d'estiu per passar a l'hora oficial.

Golmés

Metadades estació meteorol´gica
Municipi Golmés
Comarca Pla d'Urgell
Altitud 261 m
Data alta 08.08.2000
Estat actual Operativa
Dades de període
Període
TU
TM
°C
TX
°C
TN
°C
HRM
%
PPT
mm
VVM (2 m)
km/h
DVM (2 m)
graus
VVX (2 m)
km/h
RS
W/m2
00:00 - 00:30 19.0 19.2 18.8 90 0.0 2.2 68 5.4 0
00:30 - 01:00 19.5 19.8 19.1 81 0.0 2.5 84 5.8 0
01:00 - 01:30 20.0 20.2 19.7 74 0.0 2.5 82 8.3 0
01:30 - 02:00 20.3 20.6 20.1 70 0.0 2.5 79 6.5 0
02:00 - 02:30 19.5 20.3 18.7 75 0.0 1.8 61 3.2 0
02:30 - 03:00 18.9 19.1 18.7 78 0.0 2.2 63 4.7 0
03:00 - 03:30 18.9 19.1 18.7 79 0.0 1.4 59 4.0 0
03:30 - 04:00 19.2 19.8 19.0 80 0.0 1.8 70 4.3 0
04:00 - 04:30 20.0 20.2 19.8 78 0.0 2.2 84 5.4 0
04:30 - 05:00 19.9 20.1 19.1 80 0.0 1.4 159 4.0 0
05:00 - 05:30 19.1 19.5 19.0 83 0.0 2.2 164 5.4 8
05:30 - 06:00 19.8 20.2 19.4 79 0.0 1.8 168 6.1 62
06:00 - 06:30 20.4 21.0 19.9 79 0.0 1.1 273 5.0 110
06:30 - 07:00 21.1 21.2 21.0 78 0.0 2.2 313 4.0 119
07:00 - 07:30 21.6 22.6 21.1 78 0.0 2.5 282 6.1 202
07:30 - 08:00 23.5 23.9 22.8 68 0.0 2.9 270 6.1 326
08:00 - 08:30 24.6 25.0 24.0 65 0.0 2.5 257 5.8 430
08:30 - 09:00 25.3 25.7 25.0 61 0.0 4.0 260 8.6 470
09:00 - 09:30 25.7 26.2 25.3 64 0.0 4.3 277 9.7 535
09:30 - 10:00 26.1 26.8 25.7 65 0.0 4.0 292 13.0 614
10:00 - 10:30 26.7 27.4 25.9 65 0.0 4.0 287 9.7 690
10:30 - 11:00 27.5 28.2 26.9 62 0.0 4.3 279 9.0 777
11:00 - 11:30 28.0 28.6 27.3 59 0.0 3.6 314 9.0 807
11:30 - 12:00 29.1 29.4 28.8 54 0.0 4.0 253 13.0 854
12:00 - 12:30 29.7 30.1 29.1 54 0.0 4.0 289 13.0 856
12:30 - 13:00 30.2 30.7 29.9 53 0.0 3.6 291 10.1 832
13:00 - 13:30 30.4 30.8 30.1 54 0.0 5.8 288 13.0 809
13:30 - 14:00 30.8 31.7 30.1 55 0.0 4.7 294 14.4 772
14:00 - 14:30 31.4 31.8 31.1 53 0.0 5.4 278 12.6 712
14:30 - 15:00 31.2 31.9 30.7 54 0.0 5.0 300 12.6 626
15:00 - 15:30 31.4 31.8 31.0 53 0.0 4.3 316 11.2 571
15:30 - 16:00 31.0 31.7 30.6 54 0.0 4.7 297 10.8 374
16:00 - 16:30 31.5 32.1 30.9 52 0.0 4.7 299 10.8 416
16:30 - 17:00 31.4 31.8 31.2 51 0.0 4.3 295 9.4 308
17:00 - 17:30 31.0 31.3 30.9 50 0.0 4.7 287 11.2 210
17:30 - 18:00 30.7 31.0 30.2 51 0.0 2.9 266 7.6 122
18:00 - 18:30 29.7 30.1 28.7 54 0.0 0.7 265 4.3 45
18:30 - 19:00 27.6 28.5 26.8 59 0.0 2.2 169 4.3 6
19:00 - 19:30 26.5 26.9 25.8 63 0.0 2.9 168 8.3 0
19:30 - 20:00 25.6 26.2 25.0 66 0.0 3.6 162 7.9 0
20:00 - 20:30 24.8 25.1 24.4 68 0.0 2.9 158 7.2 0
20:30 - 21:00 24.1 24.4 24.0 71 0.0 1.4 161 4.7 0
21:00 - 21:30 23.0 23.9 21.8 76 0.0 0.0 152 0.7 0

Les dades en taronja només han passat un control de qualitat automàtic. Resta pendent la seva validació definitiva.